Groveport, Ohio
Current Conditions -  °F | °C
As of 9:15 AM on Sunday 25 Jan 2015 (Local Time) from KLCK Reporting Station
Broken Clouds Broken Clouds  
Wind Chill: 29°   Ceiling: 11000
Heat Index: 34°   Visibility: 7mi
Dew Point: 31°   Wind: 5mph
Humidity: 90%   Direction: 190°S
Pressure: 29.77"   Gusts: NA
Location:  39.86°N, 82.9°W
Report Text: KLCK 251415Z AUTO 19004KT 7SM SCT080 BKN110 01/M01 A2977 RMK AO2 T00091006
Loading
Personal Weather Stations






























Interactive Weather Map New forecast layout! Learn more

10-Day Weather Forecast

Advertisements
Track Severe Weather on mobile